St. John's, Canada
Current Conditions -  °F | °C
As of 8:08 PM on Tuesday 25 Nov 2014 (Local Time) from CYYT Reporting Station
Few Clouds Few Clouds  
Wind Chill: 52°   Ceiling: Unl
Heat Index: 52°   Visibility: 15mi
Dew Point: 50°   Wind: 29mph
Humidity: 94%   Direction: 260°W
Pressure: 29.69"   Gusts: 43mph
Location:  47.58°N, 52.7°W
Report Text: CYYT 252308Z 26025G37KT 15SM FEW009 11/10 A2969 RMK SF2 SLP056
Loading
Personal Weather Stations






























Interactive Weather Map New forecast layout! Learn more

10-Day Weather Forecast

Advertisements
Track Severe Weather on mobile